createdAt,value
2023-03-16T00:00:50.191Z,94
2023-03-16T00:02:50.172Z,94.1
2023-03-16T00:04:49.967Z,94.2
2023-03-16T00:06:53.412Z,94.3
2023-03-16T00:08:53.314Z,94.4
2023-03-16T00:10:53.193Z,94.4
2023-03-16T00:13:15.551Z,94.4
2023-03-16T00:15:15.431Z,94.4
2023-03-16T00:17:15.349Z,94.4
2023-03-16T00:19:18.749Z,94.5
2023-03-16T00:21:18.664Z,94.5
2023-03-16T00:23:18.584Z,94.5
2023-03-16T00:25:18.521Z,94.5
2023-03-16T00:31:18.285Z,94.3
2023-03-16T00:33:21.607Z,94.4
2023-03-16T00:35:21.455Z,94.4
2023-03-16T00:37:21.394Z,94.4
2023-03-16T00:47:24.421Z,94.2
2023-03-16T00:53:24.144Z,94.2
2023-03-16T00:55:24.058Z,94.3
2023-03-16T00:57:23.950Z,94.4
2023-03-16T00:59:24.154Z,94.5
2023-03-16T01:01:27.302Z,94.8
2023-03-16T01:03:27.192Z,94.9
2023-03-16T01:05:27.083Z,94.9
2023-03-16T01:06:28.948Z,94.9
2023-03-16T01:08:28.694Z,94.8
2023-03-16T01:10:28.914Z,94.8
2023-03-16T01:12:28.493Z,94.7
2023-03-16T01:14:31.872Z,95
2023-03-16T01:16:31.684Z,95.1
2023-03-16T01:18:31.589Z,95.2
2023-03-16T01:20:31.502Z,95.4
2023-03-16T01:22:31.435Z,95.5
2023-03-16T01:24:31.343Z,95.6
2023-03-16T01:26:31.229Z,95.7
2023-03-16T01:28:34.575Z,96
2023-03-16T01:30:34.549Z,96.1
2023-03-16T01:32:34.439Z,96.2
2023-03-16T01:34:34.320Z,96.1
2023-03-16T01:36:34.182Z,96
2023-03-16T01:38:34.082Z,95.9
2023-03-16T01:40:33.971Z,95.8
2023-03-16T01:42:37.381Z,95.8
2023-03-16T01:44:37.245Z,95.9
2023-03-16T01:46:37.247Z,96.1
2023-03-16T01:54:36.782Z,96.4
2023-03-16T01:58:40.097Z,96.7
2023-03-16T02:00:40.022Z,96.9
2023-03-16T02:01:41.715Z,97.1
2023-03-16T02:03:41.589Z,97.3
2023-03-16T02:05:41.492Z,97.4
2023-03-16T02:07:41.429Z,97.6
2023-03-16T02:09:44.811Z,97.9
2023-03-16T02:11:44.710Z,98
2023-03-16T02:13:44.602Z,98.1
2023-03-16T02:15:44.551Z,98.3
2023-03-16T02:17:44.434Z,98.4
2023-03-16T02:19:44.326Z,98.5
2023-03-16T02:21:44.248Z,98.5
2023-03-16T02:23:50.180Z,98.6
2023-03-16T02:25:47.553Z,98.7
2023-03-16T02:27:47.450Z,98.7
2023-03-16T02:29:47.360Z,98.7
2023-03-16T02:31:47.263Z,98.6
2023-03-16T02:33:47.186Z,98.6
2023-03-16T02:35:47.163Z,98.5
2023-03-16T02:37:50.502Z,98.3
2023-03-16T02:51:53.373Z,98.3
2023-03-16T02:53:53.244Z,98.3
2023-03-16T02:55:53.132Z,98.3
2023-03-16T02:56:54.837Z,98.4
2023-03-16T02:58:54.764Z,98.3
2023-03-16T03:00:54.629Z,98.3
2023-03-16T03:04:57.953Z,98.3
2023-03-16T03:06:57.827Z,98.2
2023-03-16T03:08:57.739Z,98.2
2023-03-16T03:10:57.677Z,98.2
2023-03-16T03:16:57.415Z,98.3
2023-03-16T03:19:00.769Z,98.5
2023-03-16T03:21:00.655Z,98.5
2023-03-16T03:23:00.580Z,98.6
2023-03-16T03:27:00.410Z,98.6
2023-03-16T03:29:00.300Z,98.6
2023-03-16T03:31:00.201Z,98.6
2023-03-16T03:33:20.042Z,98.6
2023-03-16T03:35:03.517Z,98.7
2023-03-16T03:37:03.384Z,98.8
2023-03-16T03:39:03.295Z,98.8
2023-03-16T03:41:03.201Z,98.9
2023-03-16T03:45:03.009Z,98.9
2023-03-16T03:47:06.471Z,99
2023-03-16T03:49:06.295Z,99.1
2023-03-16T03:51:06.211Z,99.1
2023-03-16T03:53:28.517Z,99.3
2023-03-16T03:57:28.276Z,99.5
2023-03-16T04:05:31.365Z,99.5
2023-03-16T04:09:31.179Z,99.4
2023-03-16T04:11:31.347Z,99.4
2023-03-16T04:13:34.474Z,99.3
2023-03-16T04:15:34.383Z,99.4
2023-03-16T04:17:34.316Z,99.4
2023-03-16T04:19:34.168Z,99.4
2023-03-16T04:21:34.097Z,99.5
2023-03-16T04:23:33.983Z,99.6
2023-03-16T04:25:33.912Z,99.7
2023-03-16T04:27:37.313Z,99.8
2023-03-16T04:29:37.204Z,99.9
2023-03-16T04:35:37.033Z,99.9
2023-03-16T04:46:41.732Z,99.9
2023-03-16T04:48:43.090Z,99.9
2023-03-16T04:50:42.939Z,99.9
2023-03-16T04:52:42.821Z,99.9
2023-03-16T04:54:46.236Z,99.9
2023-03-16T04:58:46.004Z,99.9
2023-03-16T05:00:45.939Z,99.9
2023-03-16T05:02:45.825Z,99.9
2023-03-16T05:04:45.742Z,99.9
2023-03-16T05:06:45.628Z,99.9
2023-03-16T05:08:49.050Z,99.9
2023-03-16T05:10:48.939Z,99.9
2023-03-16T05:12:48.827Z,99.9
2023-03-16T05:14:48.728Z,99.9
2023-03-16T05:16:48.624Z,99.9
2023-03-16T05:18:48.543Z,99.9
2023-03-16T05:20:48.608Z,99.9
2023-03-16T05:22:51.865Z,99.9
2023-03-16T05:24:51.796Z,99.9
2023-03-16T05:28:51.570Z,99.9
2023-03-16T05:30:51.514Z,99.9
2023-03-16T05:36:54.677Z,99.9
2023-03-16T05:38:54.708Z,99.9
2023-03-16T05:40:54.504Z,99.9
2023-03-16T05:41:56.209Z,99.9
2023-03-16T05:43:56.106Z,99.9
2023-03-16T05:57:58.827Z,99.9
2023-03-16T06:01:58.622Z,99.9
2023-03-16T06:04:02.086Z,99.9
2023-03-16T06:06:01.978Z,99.9
2023-03-16T06:08:01.786Z,99.9
2023-03-16T06:14:01.540Z,99.9
2023-03-16T06:16:01.479Z,99.9
2023-03-16T06:18:04.845Z,99.9
2023-03-16T06:20:21.497Z,99.9
2023-03-16T06:24:04.542Z,99.9
2023-03-16T06:28:04.485Z,99.9
2023-03-16T06:30:04.261Z,99.9
2023-03-16T06:32:07.588Z,99.9
2023-03-16T06:34:07.480Z,99.9
2023-03-16T06:36:07.435Z,99.9
2023-03-16T06:37:09.040Z,99.9
2023-03-16T06:39:08.953Z,99.9
2023-03-16T06:41:08.843Z,99.9
2023-03-16T06:43:08.746Z,99.9
2023-03-16T06:47:12.022Z,99.9
2023-03-16T06:49:11.917Z,99.9
2023-03-16T06:59:14.949Z,99.9
2023-03-16T07:01:14.914Z,99.9
2023-03-16T07:03:41.588Z,99.9
2023-03-16T07:07:14.425Z,99.9
2023-03-16T07:09:14.325Z,99.9
2023-03-16T07:11:21.421Z,99.9
2023-03-16T07:13:17.600Z,99.9
2023-03-16T07:17:17.417Z,99.9
2023-03-16T07:19:17.320Z,99.9
2023-03-16T07:21:17.225Z,99.9
2023-03-16T07:23:17.095Z,99.9
2023-03-16T07:25:17.014Z,99.9
2023-03-16T07:27:20.413Z,99.9
2023-03-16T07:31:20.324Z,99.9
2023-03-16T07:33:36.208Z,99.9
2023-03-16T07:35:36.174Z,99.9
2023-03-16T07:37:36.017Z,99.9
2023-03-16T07:39:39.434Z,99.9
2023-03-16T07:41:39.319Z,99.9
2023-03-16T07:43:39.187Z,99.9
2023-03-16T07:45:39.034Z,99.9
2023-03-16T07:47:38.909Z,99.9
2023-03-16T07:49:38.800Z,99.9
2023-03-16T07:51:38.700Z,99.9
2023-03-16T07:53:41.978Z,99.9
2023-03-16T07:55:41.918Z,99.9
2023-03-16T07:57:41.753Z,99.9
2023-03-16T07:59:41.664Z,99.9
2023-03-16T08:01:41.513Z,99.9
2023-03-16T08:03:41.396Z,99.9
2023-03-16T08:05:41.215Z,99.9
2023-03-16T08:07:44.597Z,99.9
2023-03-16T08:09:44.502Z,99.9
2023-03-16T08:11:44.375Z,99.9
2023-03-16T08:13:44.251Z,99.9
2023-03-16T08:15:44.089Z,99.9
2023-03-16T08:17:43.962Z,99.9
2023-03-16T08:19:43.763Z,99.9
2023-03-16T08:22:00.702Z,99.9
2023-03-16T08:26:48.532Z,99.9
2023-03-16T08:28:48.447Z,99.9
2023-03-16T08:32:48.281Z,99.9
2023-03-16T08:48:54.099Z,99.9
2023-03-16T08:50:53.952Z,99.9
2023-03-16T08:55:03.101Z,99.9
2023-03-16T08:57:26.534Z,99.9
2023-03-16T08:58:53.429Z,99.9
2023-03-16T09:00:53.305Z,99.9
2023-03-16T09:02:56.685Z,99.9
2023-03-16T09:04:56.564Z,99.9
2023-03-16T09:07:08.002Z,99.9
2023-03-16T09:08:56.365Z,99.9
2023-03-16T09:10:56.240Z,99.9
2023-03-16T09:12:56.142Z,99.9
2023-03-16T09:14:56.032Z,99.9
2023-03-16T09:16:59.365Z,99.9
2023-03-16T09:18:59.156Z,99.9
2023-03-16T09:21:00.164Z,99.9
2023-03-16T09:22:00.729Z,99.9
2023-03-16T09:24:00.602Z,99.9
2023-03-16T09:30:03.636Z,99.9
2023-03-16T09:32:03.496Z,99.9
2023-03-16T09:34:03.300Z,99.9
2023-03-16T09:36:03.191Z,99.9
2023-03-16T09:38:05.962Z,99.9
2023-03-16T09:42:02.701Z,99.9
2023-03-16T09:44:05.867Z,99.9
2023-03-16T09:46:05.793Z,99.9
2023-03-16T09:48:05.502Z,99.9
2023-03-16T09:50:05.385Z,99.9
2023-03-16T09:52:05.068Z,99.9
2023-03-16T09:54:04.841Z,99.9
2023-03-16T09:56:04.689Z,99.9
2023-03-16T09:58:07.841Z,99.9
2023-03-16T10:00:07.633Z,99.9
2023-03-16T10:02:07.412Z,99.9
2023-03-16T10:04:07.231Z,99.9
2023-03-16T10:06:07.093Z,99.9
2023-03-16T10:08:06.936Z,99.9
2023-03-16T10:10:06.710Z,99.9
2023-03-16T10:12:09.954Z,99.9
2023-03-16T10:14:09.730Z,99.9
2023-03-16T10:16:09.643Z,99.9
2023-03-16T10:19:10.936Z,99.9
2023-03-16T10:21:10.662Z,99.9
2023-03-16T10:23:10.475Z,99.9
2023-03-16T10:25:13.661Z,99.9
2023-03-16T10:27:13.478Z,99.9
2023-03-16T10:29:13.238Z,99.9
2023-03-16T10:31:13.168Z,99.9
2023-03-16T10:33:12.921Z,99.9
2023-03-16T10:35:14.276Z,99.9
2023-03-16T10:37:13.966Z,99.9
2023-03-16T10:39:17.143Z,99.9
2023-03-16T10:41:16.893Z,99.9
2023-03-16T10:43:16.740Z,99.9
2023-03-16T10:49:16.037Z,99.9
2023-03-16T10:51:15.806Z,99.9
2023-03-16T10:53:19.013Z,99.9
2023-03-16T10:55:18.796Z,99.9
2023-03-16T10:57:18.535Z,98.4
2023-03-16T11:01:18.125Z,96
2023-03-16T11:03:17.734Z,95.6
2023-03-16T11:11:20.117Z,92.9
2023-03-16T11:15:35.260Z,91.3
2023-03-16T11:19:38.130Z,88.9
2023-03-16T11:21:37.816Z,87.9
2023-03-16T11:23:37.518Z,86.9
2023-03-16T11:25:37.242Z,84.8
2023-03-16T11:27:36.905Z,83.3
2023-03-16T11:29:36.629Z,81.6
2023-03-16T11:31:36.397Z,81.3
2023-03-16T11:33:39.366Z,80.3
2023-03-16T11:35:46.579Z,80.6
2023-03-16T11:37:38.696Z,80.8
2023-03-16T11:39:38.373Z,81
2023-03-16T11:41:38.125Z,80.8
2023-03-16T11:43:37.669Z,79.7
2023-03-16T11:45:37.312Z,79.1
2023-03-16T11:47:40.372Z,78.6
2023-03-16T11:49:39.992Z,78.6
2023-03-16T11:51:41.091Z,79
2023-03-16T11:53:39.276Z,79
2023-03-16T11:55:39.022Z,78.9
2023-03-16T11:57:38.629Z,79.2
2023-03-16T11:59:38.761Z,79.1
2023-03-16T12:01:50.512Z,78.7
2023-03-16T12:03:41.189Z,78.8
2023-03-16T12:05:40.666Z,79.2
2023-03-16T12:06:42.173Z,80.2
2023-03-16T12:08:41.860Z,80.4
2023-03-16T12:10:41.519Z,80.5
2023-03-16T12:12:42.099Z,80.8
2023-03-16T12:14:45.188Z,81.5
2023-03-16T12:16:49.769Z,81.7
2023-03-16T12:18:44.537Z,82.1
2023-03-16T12:20:44.240Z,82.3
2023-03-16T12:24:43.550Z,82.2
2023-03-16T12:26:43.267Z,81.8
2023-03-16T12:30:45.997Z,78.7
2023-03-16T12:32:45.718Z,78.3
2023-03-16T12:34:45.394Z,77.9
2023-03-16T12:36:46.071Z,77.9
2023-03-16T12:38:44.722Z,77.4
2023-03-16T12:40:44.402Z,77.3
2023-03-16T12:42:47.712Z,77
2023-03-16T12:44:47.161Z,76.8
2023-03-16T12:46:48.031Z,76.4
2023-03-16T12:48:46.510Z,76.2
2023-03-16T12:50:47.189Z,75.8
2023-03-16T12:52:45.848Z,75.6
2023-03-16T12:54:45.486Z,74
2023-03-16T12:56:48.557Z,72.2
2023-03-16T12:58:48.216Z,69.9
2023-03-16T13:07:48.263Z,66.2
2023-03-16T13:09:51.247Z,65.5
2023-03-16T13:11:50.899Z,64.9
2023-03-16T13:13:50.472Z,64.4
2023-03-16T13:15:50.070Z,62.9
2023-03-16T13:17:49.663Z,62.7
2023-03-16T13:19:49.237Z,62.5
2023-03-16T13:21:48.800Z,62
2023-03-16T13:23:51.791Z,59.4
2023-03-16T13:25:51.344Z,59.2
2023-03-16T13:28:16.633Z,59
2023-03-16T13:29:50.481Z,59
2023-03-16T13:31:50.106Z,59
2023-03-16T13:33:49.582Z,59.5
2023-03-16T13:35:49.165Z,59.3
2023-03-16T13:37:52.107Z,58.8
2023-03-16T13:39:51.670Z,58.7
2023-03-16T13:41:51.184Z,58.5
2023-03-16T13:43:50.746Z,58.3
2023-03-16T13:45:50.344Z,58.3
2023-03-16T13:47:49.842Z,58.3
2023-03-16T13:49:49.408Z,58.7
2023-03-16T13:51:52.384Z,58.1
2023-03-16T13:53:51.924Z,58
2023-03-16T13:55:51.471Z,58
2023-03-16T13:56:52.958Z,57.9
2023-03-16T13:58:52.536Z,58
2023-03-16T14:00:52.126Z,58.2
2023-03-16T14:04:54.621Z,59.4
2023-03-16T14:06:54.164Z,59.4
2023-03-16T14:08:53.732Z,59.3
2023-03-16T14:10:53.304Z,59
2023-03-16T14:12:52.857Z,58.7
2023-03-16T14:14:52.439Z,58.2
2023-03-16T14:16:52.652Z,57.7
2023-03-16T14:18:55.011Z,57.2
2023-03-16T14:20:54.582Z,57.1
2023-03-16T14:22:54.193Z,57.1
2023-03-16T14:24:53.764Z,57.1
2023-03-16T14:26:53.333Z,57.1
2023-03-16T14:32:55.568Z,57.6
2023-03-16T14:34:55.030Z,57.5
2023-03-16T14:36:54.648Z,57.7
2023-03-16T14:38:54.187Z,57.7
2023-03-16T14:40:53.805Z,57.8
2023-03-16T14:48:55.516Z,57.3
2023-03-16T14:50:55.085Z,57
2023-03-16T14:53:16.771Z,56
2023-03-16T14:55:16.403Z,55.6
2023-03-16T14:57:15.925Z,55.2
2023-03-16T14:59:18.915Z,55.4
2023-03-16T15:01:18.572Z,55.2
2023-03-16T15:03:18.080Z,55.3
2023-03-16T15:05:17.643Z,55.5
2023-03-16T15:07:17.228Z,55.6
2023-03-16T15:09:16.819Z,55.4
2023-03-16T15:11:16.405Z,55.3
2023-03-16T15:13:19.356Z,56
2023-03-16T15:15:18.987Z,56.1
2023-03-16T15:17:18.530Z,56.1
2023-03-16T15:19:18.143Z,56.3
2023-03-16T15:21:17.702Z,56.3
2023-03-16T15:23:17.297Z,56.3
2023-03-16T15:25:16.879Z,56
2023-03-16T15:27:19.860Z,57
2023-03-16T15:29:19.439Z,57.9
2023-03-16T15:31:19.071Z,58.3
2023-03-16T15:33:18.638Z,59.2
2023-03-16T15:39:17.369Z,59.8
2023-03-16T15:52:19.894Z,56.5
2023-03-16T15:54:22.873Z,56.7
2023-03-16T15:56:22.481Z,57.2
2023-03-16T16:02:21.259Z,57.4
2023-03-16T16:04:20.888Z,57.8
2023-03-16T16:06:20.431Z,58.7
2023-03-16T16:08:23.430Z,61.7
2023-03-16T16:10:23.032Z,62.4
2023-03-16T16:12:22.642Z,63.1
2023-03-16T16:14:22.246Z,63.6
2023-03-16T16:22:25.602Z,66.1
2023-03-16T16:24:25.191Z,66.4
2023-03-16T16:26:27.752Z,66.8
2023-03-16T16:28:24.471Z,67
2023-03-16T16:30:24.092Z,67.2
2023-03-16T16:32:23.737Z,67.3
2023-03-16T16:34:23.352Z,67.4
2023-03-16T16:36:26.369Z,67.6
2023-03-16T16:38:25.994Z,67.8
2023-03-16T16:40:25.607Z,67.9
2023-03-16T16:41:27.125Z,67.9
2023-03-16T16:43:26.876Z,67.9
2023-03-16T16:45:26.416Z,67.8
2023-03-16T16:47:26.018Z,68
2023-03-16T16:49:29.044Z,68.4
2023-03-16T16:53:28.346Z,69
2023-03-16T16:59:27.272Z,69.5
2023-03-16T17:01:27.001Z,69.6
2023-03-16T17:03:29.956Z,69.9
2023-03-16T17:05:29.732Z,70
2023-03-16T17:07:29.248Z,70.2
2023-03-16T17:09:28.949Z,70.3
2023-03-16T17:11:28.570Z,70.5
2023-03-16T17:13:28.229Z,70.7
2023-03-16T17:15:28.338Z,70.9
2023-03-16T17:21:30.279Z,71.4
2023-03-16T17:25:29.802Z,71.9
2023-03-16T17:27:31.732Z,72.2
2023-03-16T17:36:32.874Z,73.9
2023-03-16T17:40:32.504Z,74.2
2023-03-16T17:44:35.000Z,75
2023-03-16T17:46:34.712Z,75.1
2023-03-16T17:48:34.334Z,75.3
2023-03-16T17:50:34.045Z,75.5
2023-03-16T17:52:33.749Z,75.8
2023-03-16T17:54:33.413Z,75.8
2023-03-16T17:56:33.128Z,75.8
2023-03-16T17:58:36.224Z,76.2
2023-03-16T18:00:35.906Z,76.3
2023-03-16T18:04:35.268Z,77.1
2023-03-16T18:06:34.976Z,77.8
2023-03-16T18:08:34.659Z,78.1
2023-03-16T18:10:34.359Z,78.6
2023-03-16T18:14:37.162Z,79
2023-03-16T18:16:36.941Z,78.8
2023-03-16T18:18:36.537Z,78.7
2023-03-16T18:20:36.219Z,78.5
2023-03-16T18:26:38.685Z,78.4
2023-03-16T18:28:38.396Z,78.4
2023-03-16T18:30:38.117Z,78.4
2023-03-16T18:32:59.352Z,78.4
2023-03-16T18:34:58.988Z,78.4
2023-03-16T18:36:58.689Z,78.3
2023-03-16T18:41:01.468Z,78.6
2023-03-16T18:49:00.157Z,79.5
2023-03-16T18:50:59.866Z,79.7
2023-03-16T18:53:02.945Z,80.2
2023-03-16T18:55:02.658Z,80.4
2023-03-16T18:59:02.027Z,80.6
2023-03-16T19:05:01.156Z,81.3
2023-03-16T19:07:04.743Z,82.1
2023-03-16T19:09:03.966Z,82.4
2023-03-16T19:11:03.662Z,82.7
2023-03-16T19:13:03.385Z,82.9
2023-03-16T19:15:03.097Z,82.9
2023-03-16T19:17:02.813Z,83
2023-03-16T19:19:02.544Z,83
2023-03-16T19:21:05.666Z,83.2
2023-03-16T19:23:05.359Z,83.3
2023-03-16T19:25:05.070Z,83.3
2023-03-16T19:26:06.627Z,83.3
2023-03-16T19:28:06.386Z,83.4
2023-03-16T19:30:06.074Z,83.3
2023-03-16T19:32:05.865Z,83.3
2023-03-16T19:34:08.921Z,83.6
2023-03-16T19:36:08.641Z,83.9
2023-03-16T19:38:08.374Z,84.2
2023-03-16T19:42:09.028Z,85
2023-03-16T19:44:07.492Z,85.3
2023-03-16T19:46:07.279Z,85.6
2023-03-16T19:48:10.318Z,86.2
2023-03-16T19:54:09.527Z,87.2
2023-03-16T20:18:13.150Z,91.3
2023-03-16T20:21:14.425Z,91.4
2023-03-16T20:23:14.164Z,91.4
2023-03-16T20:25:13.894Z,91.5
2023-03-16T20:27:13.644Z,91.6
2023-03-16T20:29:16.797Z,91.9
2023-03-16T20:31:16.593Z,92
2023-03-16T20:33:16.301Z,92.1
2023-03-16T20:37:15.870Z,92
2023-03-16T20:39:15.597Z,92
2023-03-16T20:41:15.360Z,92.1
2023-03-16T20:43:18.483Z,92.2
2023-03-16T20:47:17.997Z,92.3
2023-03-16T20:49:17.731Z,92.2
2023-03-16T20:51:17.497Z,92.1
2023-03-16T20:53:17.213Z,92
2023-03-16T20:55:16.942Z,91.9
2023-03-16T20:59:19.794Z,91.8
2023-03-16T21:01:19.562Z,91.9
2023-03-16T21:03:19.294Z,92
2023-03-16T21:07:18.774Z,92
2023-03-16T21:09:18.530Z,91.9
2023-03-16T21:16:22.760Z,91.8
2023-03-16T21:18:22.427Z,91.9
2023-03-16T21:24:25.031Z,91.8
2023-03-16T21:26:46.697Z,91.7
2023-03-16T21:28:24.492Z,91.7
2023-03-16T21:30:24.291Z,91.7
2023-03-16T21:32:23.944Z,91.7
2023-03-16T21:34:23.751Z,91.7
2023-03-16T21:36:23.473Z,91.7
2023-03-16T21:38:26.577Z,91.6
2023-03-16T21:40:26.303Z,91.6
2023-03-16T21:42:26.050Z,91.6
2023-03-16T21:44:25.788Z,91.5
2023-03-16T21:46:25.646Z,91.4
2023-03-16T21:48:25.248Z,91.2
2023-03-16T21:50:25.007Z,91.1
2023-03-16T21:52:28.143Z,91.1
2023-03-16T21:56:27.605Z,91.3
2023-03-16T21:58:27.373Z,91.3
2023-03-16T22:00:27.103Z,91.4
2023-03-16T22:02:26.905Z,91.4
2023-03-16T22:06:31.250Z,91.4
2023-03-16T22:08:30.998Z,91.4
2023-03-16T22:10:30.728Z,91.4
2023-03-16T22:14:52.471Z,91.3
2023-03-16T22:18:55.373Z,91.1
2023-03-16T22:20:55.102Z,91.1
2023-03-16T22:22:54.855Z,91
2023-03-16T22:24:54.561Z,90.9
2023-03-16T22:26:54.312Z,90.8
2023-03-16T22:28:54.051Z,90.9
2023-03-16T22:30:53.796Z,90.9
2023-03-16T22:32:57.016Z,91.1
2023-03-16T22:34:56.692Z,91.2
2023-03-16T22:36:56.419Z,91.2
2023-03-16T22:38:56.187Z,91.3
2023-03-16T22:40:55.909Z,91.4
2023-03-16T22:42:55.701Z,91.3
2023-03-16T22:44:55.448Z,91.3
2023-03-16T22:46:58.521Z,91.3
2023-03-16T22:48:58.314Z,91.3
2023-03-16T22:52:57.767Z,91.3
2023-03-16T22:54:57.501Z,91.3
2023-03-16T22:56:57.263Z,91.3
2023-03-16T22:58:56.990Z,91.3
2023-03-16T23:02:59.911Z,91.3
2023-03-16T23:04:59.699Z,91.3
2023-03-16T23:06:01.225Z,91.3
2023-03-16T23:08:00.968Z,91.3
2023-03-16T23:12:00.447Z,91.3
2023-03-16T23:14:03.578Z,91.2
2023-03-16T23:16:03.351Z,91.1
2023-03-16T23:18:03.075Z,91.1
2023-03-16T23:20:02.862Z,91
2023-03-16T23:22:02.573Z,91
2023-03-16T23:26:02.107Z,91.1
2023-03-16T23:28:05.233Z,91.2
2023-03-16T23:30:04.974Z,91.2
2023-03-16T23:32:04.743Z,91.2
2023-03-16T23:34:04.471Z,91.2
2023-03-16T23:36:04.249Z,91.2
2023-03-16T23:38:03.997Z,91.2
2023-03-16T23:40:03.722Z,91.1
2023-03-16T23:42:06.852Z,91
2023-03-16T23:44:06.693Z,90.9
2023-03-16T23:46:06.472Z,90.7
2023-03-16T23:48:06.233Z,90.5
2023-03-16T23:50:05.968Z,90.3
2023-03-16T23:52:05.705Z,90.2
2023-03-16T23:54:05.442Z,90.2
2023-03-16T23:58:08.361Z,90.4
